Kezdőlap
METAR-TAF:

METAR-TAF

Repülőterek :

Montauk, New York, Amerikai Egyesült Államok

földrajzi szélesség: 41-04-23N, földrajzi hosszúság: 071-55-24W, magasság: 2 m

Jelenlegi meteorológiai megfigyelések

A jelentés 48 perccel ezelõtt készült, 16:54 UTC
Nyugati szél 8 kt
Hőmérséklet 8°C
Páratartalom 36%
Légköri nyomás 1022 hPa

METAR: KMTP 231654Z AUTO 27008KT 08/M06 A3018 RMK AO1 SLP219 T00781061

Idő: 12:42 (17:42 UTC)


TAF: hiányzik

Meteorológiai megfigyelések és előrejelzések több, mint 4000 repülőtéren (METAR és TAF jelentéseket).

A térképen piros és sárga pontok jelzik az elérhető meteorológiai állomásokat.

Mozgassa az egeret a pont fölött, hogy megjelenjen az állomás neve.

Azután kattintson az időjárási megfigyelések és előrejelzések megtekintéséhez.

A térkép megváltoztatása: kattintson a fekete keresztel jelölt zöld gombra ráközelítéshez, a vonallal jelölt zöld gombra távolításhoz, vagy a zöld nyilakra a szomszédos térképek eléréséhez.


METAR-TAF: